Time;durP1;ratioP1;P1;durP2;ratioP2;P2;SDS_P1;SDS_P2;PMS_P1;PMS_P2;Temp;Humidity;BMP_temperature;BMP_pressure;BME280_temperature;BME280_humidity;BME280_pressure;Samples;Min_cycle;Max_cycle;Signal;HPM_P1;HPM_P2
2021/05/07 00:01:28;;;;;;;10.60;2.08;;;11.80;99.90;;;;;;4974226;28;20545;-78
2021/05/07 00:03:54;;;;;;;9.68;1.83;;;11.90;99.90;;;;;;4974395;28;20023;-78
2021/05/07 00:06:19;;;;;;;18.55;1.90;;;11.80;99.90;;;;;;4974379;28;20110;-78
2021/05/07 00:08:45;;;;;;;8.80;2.00;;;11.80;99.90;;;;;;4974027;28;20110;-78
2021/05/07 00:11:14;;;;;;;14.38;1.33;;;11.70;99.90;;;;;;4973711;28;20513;-78
2021/05/07 00:13:41;;;;;;;15.45;1.40;;;11.60;99.90;;;;;;4971804;28;20525;-78
2021/05/07 00:16:07;;;;;;;4.13;0.80;;;11.60;99.90;;;;;;4966264;28;20078;-79
2021/05/07 00:18:33;;;;;;;10.38;1.40;;;11.60;99.90;;;;;;4974166;28;20435;-78
2021/05/07 00:20:59;;;;;;;8.13;1.80;;;11.50;99.90;;;;;;4974058;28;20100;-78
2021/05/07 00:23:25;;;;;;;4.95;1.40;;;11.40;99.90;;;;;;4973864;28;20092;-78
2021/05/07 00:25:52;;;;;;;9.38;0.82;;;11.30;99.90;;;;;;4972945;28;20102;-78
2021/05/07 00:28:19;;;;;;;3.38;1.00;;;11.30;99.90;;;;;;4973925;28;20053;-79
2021/05/07 00:30:46;;;;;;;5.88;0.73;;;11.20;99.90;;;;;;4973713;28;20464;-79
2021/05/07 00:33:12;;;;;;;0.20;0.20;;;11.20;99.90;;;;;;4973663;28;20394;-78
2021/05/07 00:35:37;;;;;;;6.57;0.40;;;11.20;99.90;;;;;;4973826;28;20022;-78
2021/05/07 00:38:04;;;;;;;3.88;0.80;;;11.10;99.90;;;;;;4955348;28;20034;-78
2021/05/07 00:40:30;;;;;;;10.23;0.77;;;11.00;99.90;;;;;;4969682;28;20090;-78
2021/05/07 00:42:56;;;;;;;3.22;0.68;;;11.00;99.90;;;;;;4972644;28;20117;-78
2021/05/07 00:45:23;;;;;;;2.88;1.10;;;11.00;99.90;;;;;;4968772;28;20066;-79
2021/05/07 00:47:59;;;;;;;5.97;2.00;;;11.00;99.90;;;;;;4973877;28;20111;-79
2021/05/07 00:50:36;;;;;;;2.92;0.73;;;11.00;99.90;;;;;;4973330;28;20026;-78
2021/05/07 00:53:02;;;;;;;1.92;0.57;;;10.90;99.90;;;;;;4972137;28;20389;-78
2021/05/07 00:55:29;;;;;;;7.20;0.98;;;10.90;99.90;;;;;;4972723;28;20381;-78
2021/05/07 00:57:56;;;;;;;5.35;0.73;;;10.90;99.90;;;;;;4952600;29;20466;-78
2021/05/07 01:00:24;;;;;;;2.58;0.65;;;10.80;99.90;;;;;;4971686;28;20026;-78
2021/05/07 01:02:50;;;;;;;10.73;0.68;;;10.80;99.90;;;;;;4973240;28;20027;-79
2021/05/07 01:05:16;;;;;;;8.98;0.40;;;10.80;99.90;;;;;;4973226;28;20030;-78
2021/05/07 01:07:42;;;;;;;3.47;0.40;;;10.80;99.90;;;;;;4972977;28;20034;-78
2021/05/07 01:10:11;;;;;;;4.03;0.35;;;10.80;99.90;;;;;;4959956;28;20023;-78
2021/05/07 01:12:37;;;;;;;3.70;0.90;;;10.80;99.90;;;;;;4972399;28;20034;-78
2021/05/07 01:15:14;;;;;;;1.10;0.40;;;10.80;99.90;;;;;;4972991;28;20056;-78
2021/05/07 01:17:42;;;;;;;1.75;0.65;;;10.80;99.90;;;;;;4973643;28;20394;-78
2021/05/07 01:20:14;;;;;;;1.27;0.30;;;10.80;99.90;;;;;;4973356;28;20019;-78
2021/05/07 01:22:41;;;;;;;7.35;0.25;;;10.70;99.90;;;;;;4973479;28;20031;-78
2021/05/07 01:25:08;;;;;;;10.38;1.08;;;10.70;99.90;;;;;;4972458;28;20030;-78
2021/05/07 01:27:38;;;;;;;12.73;1.15;;;10.70;99.90;;;;;;4972897;28;20034;-78
2021/05/07 01:30:09;;;;;;;1.08;0.30;;;10.70;99.90;;;;;;4973582;28;20030;-79
2021/05/07 01:32:36;;;;;;;5.15;0.77;;;10.70;99.90;;;;;;4973026;28;20081;-78
2021/05/07 01:35:02;;;;;;;4.05;0.47;;;10.80;99.90;;;;;;4971405;28;20027;-78
2021/05/07 01:37:27;;;;;;;1.98;0.60;;;10.80;99.90;;;;;;4963633;28;20197;-78
2021/05/07 01:39:53;;;;;;;5.55;0.63;;;10.80;99.90;;;;;;4974610;28;20062;-78
2021/05/07 01:42:18;;;;;;;11.48;1.38;;;10.80;99.90;;;;;;4976700;28;20032;-78
2021/05/07 01:44:44;;;;;;;1.27;0.40;;;10.80;99.90;;;;;;4970567;28;20023;-79
2021/05/07 01:47:10;;;;;;;3.10;0.57;;;10.80;99.90;;;;;;4973986;28;20027;-78
2021/05/07 01:49:35;;;;;;;1.13;0.45;;;10.90;99.90;;;;;;4976873;28;20034;-78
2021/05/07 01:52:01;;;;;;;6.50;0.80;;;10.90;99.90;;;;;;4976871;28;20030;-78
2021/05/07 01:54:27;;;;;;;3.33;0.38;;;11.00;99.90;;;;;;4975363;28;20109;-78
2021/05/07 01:56:52;;;;;;;7.45;0.57;;;11.10;99.90;;;;;;4976445;28;20038;-76
2021/05/07 01:59:18;;;;;;;7.03;0.88;;;11.10;99.90;;;;;;4976374;28;20379;-78
2021/05/07 02:01:43;;;;;;;5.47;0.60;;;11.20;99.90;;;;;;4976415;28;20097;-79
2021/05/07 02:04:09;;;;;;;4.40;1.30;;;11.20;99.90;;;;;;4976309;28;20034;-79
2021/05/07 02:06:35;;;;;;;6.38;0.43;;;11.20;99.90;;;;;;4976368;28;20031;-79
2021/05/07 02:09:01;;;;;;;3.95;0.73;;;11.10;99.90;;;;;;4976029;28;20035;-76
2021/05/07 02:11:26;;;;;;;2.10;0.60;;;11.00;99.90;;;;;;4976180;28;20367;-78
2021/05/07 02:13:52;;;;;;;2.30;1.05;;;10.90;99.90;;;;;;4974258;28;20108;-79
2021/05/07 02:16:17;;;;;;;1.08;0.63;;;10.80;99.90;;;;;;4968345;28;20039;-79
2021/05/07 02:18:43;;;;;;;2.13;0.52;;;10.60;99.90;;;;;;4976207;28;20034;-79
2021/05/07 02:21:11;;;;;;;0.40;0.40;;;10.60;99.90;;;;;;4976365;28;20034;-78
2021/05/07 02:23:37;;;;;;;1.75;0.65;;;10.40;99.90;;;;;;4976177;28;20034;-78
2021/05/07 02:26:02;;;;;;;3.17;0.60;;;10.40;99.90;;;;;;4975224;28;20490;-79
2021/05/07 02:28:28;;;;;;;2.10;0.70;;;10.30;99.90;;;;;;4976099;28;20528;-79
2021/05/07 02:30:53;;;;;;;3.13;0.90;;;10.30;99.90;;;;;;4976102;28;20118;-79
2021/05/07 02:33:19;;;;;;;2.55;1.05;;;10.20;99.90;;;;;;4975582;28;20446;-79
2021/05/07 02:35:45;;;;;;;2.45;0.77;;;10.10;99.90;;;;;;4975439;28;20517;-79
2021/05/07 02:38:10;;;;;;;5.35;0.60;;;10.10;99.90;;;;;;4966576;28;20393;-79
2021/05/07 02:40:36;;;;;;;7.78;0.93;;;10.00;99.90;;;;;;4975366;28;20031;-79
2021/05/07 02:43:02;;;;;;;2.55;1.02;;;9.90;99.90;;;;;;4974782;28;20110;-79
2021/05/07 02:45:27;;;;;;;1.48;0.55;;;9.80;99.90;;;;;;4967134;28;20026;-79
2021/05/07 02:47:53;;;;;;;4.97;1.00;;;9.80;99.90;;;;;;4975493;28;20027;-78
2021/05/07 02:50:18;;;;;;;0.88;0.73;;;9.70;99.90;;;;;;4975557;28;20031;-78
2021/05/07 02:52:45;;;;;;;2.50;0.50;;;9.70;99.90;;;;;;4975557;28;20077;-79
2021/05/07 02:55:11;;;;;;;1.67;0.88;;;9.60;99.90;;;;;;4975265;28;20034;-79
2021/05/07 02:57:37;;;;;;;4.00;1.15;;;9.50;99.90;;;;;;4975036;28;20398;-79
2021/05/07 03:00:05;;;;;;;7.90;1.20;;;9.50;99.90;;;;;;4975766;28;20027;-79
2021/05/07 03:02:31;;;;;;;2.17;0.85;;;9.40;99.90;;;;;;4975156;28;20097;-78
2021/05/07 03:04:56;;;;;;;0.90;0.60;;;9.40;99.90;;;;;;4975076;28;20058;-79
2021/05/07 03:07:22;;;;;;;1.20;0.80;;;9.30;99.90;;;;;;4975658;28;20117;-79
2021/05/07 03:09:47;;;;;;;1.90;0.75;;;9.20;99.90;;;;;;4974914;28;20026;-79
2021/05/07 03:12:13;;;;;;;3.35;0.90;;;9.20;99.90;;;;;;4974568;28;20054;-79
2021/05/07 03:14:39;;;;;;;12.05;1.55;;;9.20;99.90;;;;;;4957513;28;20076;-76
2021/05/07 03:17:05;;;;;;;6.03;1.45;;;9.20;99.90;;;;;;4974782;28;20062;-78
2021/05/07 03:19:30;;;;;;;1.52;0.90;;;9.30;99.90;;;;;;4975166;28;20035;-79
2021/05/07 03:21:56;;;;;;;1.80;0.85;;;9.20;99.90;;;;;;4975192;28;20042;-79
2021/05/07 03:24:21;;;;;;;3.83;0.70;;;9.20;99.90;;;;;;4974560;28;20105;-79
2021/05/07 03:26:47;;;;;;;3.95;0.93;;;9.10;99.90;;;;;;4974186;28;20046;-79
2021/05/07 03:29:13;;;;;;;4.00;1.60;;;9.10;99.90;;;;;;4973096;28;20038;-79
2021/05/07 03:31:38;;;;;;;5.50;1.08;;;9.00;99.90;;;;;;4974121;28;20030;-78
2021/05/07 03:34:04;;;;;;;0.93;0.63;;;8.90;99.90;;;;;;4957424;28;20027;-79
2021/05/07 03:36:31;;;;;;;1.20;0.73;;;8.90;99.90;;;;;;4967739;28;20023;-79
2021/05/07 03:38:57;;;;;;;1.98;1.33;;;8.80;99.90;;;;;;4969905;28;20034;-78
2021/05/07 03:41:23;;;;;;;3.42;1.33;;;8.70;99.90;;;;;;4974324;28;20018;-78
2021/05/07 03:43:48;;;;;;;4.93;1.27;;;8.70;99.90;;;;;;4967682;28;20039;-78
2021/05/07 03:46:14;;;;;;;2.20;0.85;;;8.60;99.90;;;;;;4973055;28;20402;-79
2021/05/07 03:48:40;;;;;;;2.00;1.27;;;8.60;99.90;;;;;;4974738;28;20052;-78
2021/05/07 03:51:05;;;;;;;1.55;1.33;;;8.50;99.90;;;;;;4974364;28;20561;-78
2021/05/07 03:53:31;;;;;;;1.42;0.80;;;8.40;99.90;;;;;;4974498;28;20077;-78
2021/05/07 03:55:57;;;;;;;3.75;1.00;;;8.40;99.90;;;;;;4974155;28;20390;-78
2021/05/07 03:58:23;;;;;;;4.30;1.52;;;8.40;99.90;;;;;;4973973;28;20494;-76
2021/05/07 04:00:49;;;;;;;7.75;1.40;;;8.30;99.90;;;;;;4974334;28;20033;-78
2021/05/07 04:03:14;;;;;;;3.58;1.17;;;8.30;99.90;;;;;;4972348;28;20490;-79
2021/05/07 04:05:41;;;;;;;3.03;1.40;;;8.30;99.90;;;;;;4974167;28;20066;-78
2021/05/07 04:08:19;;;;;;;1.42;1.10;;;8.30;99.90;;;;;;4974397;28;20390;-78
2021/05/07 04:10:50;;;;;;;2.35;1.13;;;8.30;99.90;;;;;;4974027;28;20153;-79
2021/05/07 04:15:56;;;;;;;1.73;1.25;;;8.20;99.90;;;;;;4966045;28;20109;-78
2021/05/07 04:18:22;;;;;;;5.30;1.58;;;8.20;99.90;;;;;;4974386;28;20453;-77
2021/05/07 04:20:48;;;;;;;5.60;1.90;;;8.20;99.90;;;;;;4974157;28;20101;-78
2021/05/07 04:23:13;;;;;;;7.50;1.70;;;8.20;99.90;;;;;;4973997;28;20114;-78
2021/05/07 04:25:39;;;;;;;3.55;1.38;;;8.20;99.90;;;;;;4972045;28;20130;-78
2021/05/07 04:28:05;;;;;;;1.58;0.98;;;8.10;99.90;;;;;;4972816;28;20034;-78
2021/05/07 04:30:31;;;;;;;1.65;1.40;;;8.10;99.90;;;;;;4973983;28;20086;-78
2021/05/07 04:32:56;;;;;;;1.90;1.35;;;8.10;99.90;;;;;;4973775;28;20030;-78
2021/05/07 04:35:22;;;;;;;2.50;1.55;;;8.10;99.90;;;;;;4973572;28;20110;-78
2021/05/07 04:37:48;;;;;;;2.20;1.42;;;8.00;99.90;;;;;;4963445;28;20058;-78
2021/05/07 04:40:14;;;;;;;7.50;1.50;;;8.00;99.90;;;;;;4973356;28;20034;-78
2021/05/07 04:42:40;;;;;;;1.25;1.15;;;8.00;99.90;;;;;;4972834;28;20037;-78
2021/05/07 04:45:07;;;;;;;1.95;1.55;;;8.00;99.90;;;;;;4969066;28;20106;-78
2021/05/07 04:47:33;;;;;;;3.60;1.42;;;8.00;99.90;;;;;;4973528;28;20039;-78
2021/05/07 04:49:58;;;;;;;2.45;1.67;;;7.90;99.90;;;;;;4973786;28;20090;-78
2021/05/07 04:52:24;;;;;;;3.95;1.35;;;7.90;99.90;;;;;;4973575;28;20045;-78
2021/05/07 04:54:50;;;;;;;2.00;1.60;;;8.00;99.90;;;;;;4973469;28;20023;-78
2021/05/07 04:57:15;;;;;;;3.05;1.92;;;7.90;99.90;;;;;;4969462;28;20097;-78
2021/05/07 04:59:41;;;;;;;3.83;1.30;;;7.90;99.90;;;;;;4972874;28;20023;-78
2021/05/07 05:02:06;;;;;;;2.80;1.63;;;7.90;99.90;;;;;;4972114;28;20031;-78
2021/05/07 05:04:32;;;;;;;2.00;1.55;;;7.90;99.90;;;;;;4973443;28;20528;-78
2021/05/07 05:06:58;;;;;;;2.38;1.50;;;7.90;99.90;;;;;;4973121;28;20085;-78
2021/05/07 05:09:23;;;;;;;5.13;1.42;;;7.90;99.90;;;;;;4971105;28;20027;-78
2021/05/07 05:11:49;;;;;;;1.33;1.17;;;7.80;99.90;;;;;;4972081;28;20035;-79
2021/05/07 05:14:15;;;;;;;3.10;1.80;;;7.90;99.90;;;;;;4974573;28;20073;-78
2021/05/07 05:16:41;;;;;;;2.78;1.67;;;7.80;99.90;;;;;;4971154;28;20576;-78
2021/05/07 05:19:06;;;;;;;7.47;1.75;;;7.80;99.90;;;;;;4980775;28;20027;-78
2021/05/07 05:21:32;;;;;;;4.15;1.67;;;7.90;99.90;;;;;;4979027;28;20579;-79
2021/05/07 05:23:57;;;;;;;3.60;1.50;;;7.90;99.90;;;;;;4979619;28;20030;-79
2021/05/07 05:26:23;;;;;;;3.47;1.65;;;7.90;99.90;;;;;;4969480;28;20030;-76
2021/05/07 05:28:49;;;;;;;1.90;1.58;;;7.90;99.90;;;;;;4975543;28;20035;-80
2021/05/07 05:31:14;;;;;;;2.67;1.40;;;7.90;99.90;;;;;;4977180;28;20482;-81
2021/05/07 05:33:40;;;;;;;5.18;2.05;;;7.90;99.90;;;;;;4974992;28;20023;-81
2021/05/07 05:36:06;;;;;;;1.58;1.25;;;8.00;99.90;;;;;;4976052;28;20061;-81
2021/05/07 05:38:32;;;;;;;2.55;2.15;;;8.00;99.90;;;;;;4976364;28;20023;-75
2021/05/07 05:40:57;;;;;;;8.32;2.40;;;8.00;99.90;;;;;;4975071;28;20027;-79
2021/05/07 05:43:23;;;;;;;5.00;1.90;;;8.10;99.90;;;;;;4974620;28;20031;-79
2021/05/07 05:45:49;;;;;;;3.40;2.00;;;8.10;99.90;;;;;;4976661;28;20038;-79
2021/05/07 05:48:17;;;;;;;4.70;2.20;;;8.20;99.90;;;;;;4976623;28;20038;-79
2021/05/07 05:50:47;;;;;;;3.97;1.95;;;8.20;99.90;;;;;;4969079;28;20550;-75
2021/05/07 05:53:12;;;;;;;2.00;1.38;;;8.30;99.90;;;;;;4972166;28;20023;-81
2021/05/07 05:55:38;;;;;;;3.70;1.80;;;8.30;99.90;;;;;;4976384;28;20541;-79
2021/05/07 05:58:05;;;;;;;1.80;1.50;;;8.40;99.90;;;;;;4974683;28;20434;-80
2021/05/07 06:00:31;;;;;;;1.70;1.58;;;8.50;99.90;;;;;;4964162;28;20027;-81
2021/05/07 06:02:57;;;;;;;2.60;2.00;;;8.60;99.90;;;;;;4974135;28;20512;-80
2021/05/07 06:05:22;;;;;;;2.38;1.73;;;8.60;99.90;;;;;;4974027;28;20039;-75
2021/05/07 06:07:48;;;;;;;3.42;1.80;;;8.70;99.90;;;;;;4974095;28;20117;-81
2021/05/07 06:10:15;;;;;;;2.45;1.67;;;8.80;99.90;;;;;;4970999;28;20545;-80
2021/05/07 06:12:42;;;;;;;3.38;2.13;;;8.80;99.90;;;;;;4973821;28;20026;-81
2021/05/07 06:15:08;;;;;;;1.90;1.55;;;8.90;99.90;;;;;;4973371;28;20050;-79
2021/05/07 06:17:35;;;;;;;2.22;1.63;;;9.00;99.90;;;;;;4970728;28;20105;-81
2021/05/07 06:20:03;;;;;;;3.50;1.75;;;9.10;99.90;;;;;;4974543;28;20078;-81
2021/05/07 06:22:30;;;;;;;3.55;1.77;;;9.20;99.90;;;;;;4973658;28;20502;-80
2021/05/07 06:24:56;;;;;;;2.95;1.85;;;9.30;99.90;;;;;;4977074;28;20027;-80
2021/05/07 06:27:22;;;;;;;1.77;1.42;;;9.40;99.90;;;;;;4978541;28;20401;-81
2021/05/07 06:29:47;;;;;;;5.93;1.30;;;9.50;99.90;;;;;;4963931;28;20030;-80
2021/05/07 06:32:13;;;;;;;1.55;1.35;;;9.60;99.90;;;;;;4948282;28;20022;-80
2021/05/07 06:34:38;;;;;;;2.25;1.90;;;9.70;99.90;;;;;;4973799;28;20047;-79
2021/05/07 06:37:04;;;;;;;4.10;1.77;;;9.90;99.90;;;;;;4973019;28;20033;-80
2021/05/07 06:39:30;;;;;;;3.25;1.27;;;9.90;99.90;;;;;;4974352;28;20041;-81
2021/05/07 06:42:00;;;;;;;1.60;1.40;;;10.10;99.90;;;;;;4972051;28;20050;-81
2021/05/07 06:44:26;;;;;;;1.95;1.13;;;10.20;99.90;;;;;;4954922;28;20140;-78
2021/05/07 06:46:53;;;;;;;1.70;1.48;;;10.30;99.90;;;;;;4973234;28;20525;-79
2021/05/07 06:49:19;;;;;;;8.27;2.03;;;10.50;99.90;;;;;;4973469;28;20052;-80
2021/05/07 06:51:45;;;;;;;7.60;2.53;;;10.60;99.90;;;;;;4974574;28;20026;-77
2021/05/07 06:54:11;;;;;;;6.20;1.92;;;10.60;99.90;;;;;;4976020;28;20038;-78
2021/05/07 06:56:37;;;;;;;5.10;2.08;;;10.70;99.90;;;;;;4971749;28;20031;-78
2021/05/07 06:59:06;;;;;;;4.50;2.17;;;10.90;99.90;;;;;;4972344;28;20034;-78
2021/05/07 07:01:36;;;;;;;4.07;1.98;;;11.00;99.90;;;;;;4974655;28;20097;-79
2021/05/07 07:04:02;;;;;;;3.63;1.85;;;11.10;99.90;;;;;;4978828;28;20112;-79
2021/05/07 07:06:28;;;;;;;8.73;2.08;;;11.30;99.90;;;;;;4975902;28;20043;-79
2021/05/07 07:08:54;;;;;;;2.38;1.65;;;11.50;99.90;;;;;;4973099;28;20035;-79
2021/05/07 07:11:20;;;;;;;1.90;1.60;;;11.50;99.90;;;;;;4973819;28;20035;-79
2021/05/07 07:13:46;;;;;;;3.70;2.15;;;11.70;99.90;;;;;;4973064;28;20034;-80
2021/05/07 07:16:12;;;;;;;8.10;2.08;;;11.90;99.90;;;;;;4972204;28;20174;-78
2021/05/07 07:18:37;;;;;;;2.03;1.52;;;11.90;99.50;;;;;;4972545;28;20114;-78
2021/05/07 07:21:03;;;;;;;4.15;1.63;;;12.00;98.80;;;;;;4980770;28;20030;-79
2021/05/07 07:23:29;;;;;;;5.05;1.50;;;12.20;99.30;;;;;;4972159;28;20054;-79
2021/05/07 07:25:55;;;;;;;3.22;1.80;;;12.50;99.10;;;;;;4973658;28;20031;-78
2021/05/07 07:28:20;;;;;;;1.85;1.40;;;12.50;98.10;;;;;;4974680;28;20031;-78
2021/05/07 07:30:46;;;;;;;5.90;1.38;;;12.60;97.60;;;;;;4973553;28;20486;-78
2021/05/07 07:33:12;;;;;;;2.47;1.23;;;12.60;97.60;;;;;;4972058;28;20042;-78
2021/05/07 07:35:38;;;;;;;2.03;1.38;;;12.80;97.10;;;;;;4973363;28;20022;-78
2021/05/07 07:38:04;;;;;;;1.20;1.10;;;12.80;95.90;;;;;;4976459;28;20034;-79
2021/05/07 07:40:30;;;;;;;1.70;1.20;;;13.10;96.60;;;;;;4973300;28;20039;-79
2021/05/07 07:42:56;;;;;;;2.50;1.50;;;13.80;95.70;;;;;;4970244;28;20061;-80
2021/05/07 07:45:21;;;;;;;2.25;1.80;;;14.30;94.00;;;;;;4971925;28;20773;-80
2021/05/07 07:47:47;;;;;;;2.95;1.33;;;14.50;92.80;;;;;;4975527;28;20076;-80
2021/05/07 07:50:13;;;;;;;6.22;1.42;;;14.50;91.70;;;;;;4972372;28;20458;-80
2021/05/07 07:52:39;;;;;;;1.75;1.35;;;15.30;91.80;;;;;;4960162;28;20055;-78
2021/05/07 07:55:07;;;;;;;2.35;1.10;;;16.90;86.30;;;;;;4973461;28;20462;-79
2021/05/07 07:57:33;;;;;;;1.77;1.20;;;18.00;79.10;;;;;;4970983;28;20037;-79
2021/05/07 07:59:59;;;;;;;1.38;1.27;;;18.80;77.10;;;;;;4972244;28;20019;-76
2021/05/07 08:02:29;;;;;;;1.40;1.10;;;19.20;74.40;;;;;;4969849;28;20038;-79
2021/05/07 08:04:55;;;;;;;2.08;1.17;;;19.90;72.00;;;;;;4972508;28;20073;-80
2021/05/07 08:07:20;;;;;;;1.60;1.50;;;20.40;70.40;;;;;;4970643;28;20034;-78
2021/05/07 08:09:46;;;;;;;1.55;1.45;;;20.40;69.50;;;;;;4973646;28;20033;-79
2021/05/07 08:12:12;;;;;;;3.45;1.48;;;20.40;67.80;;;;;;4970824;28;20104;-79
2021/05/07 08:14:38;;;;;;;2.17;1.10;;;20.40;69.50;;;;;;4971026;28;20030;-79
2021/05/07 08:17:04;;;;;;;0.80;0.80;;;20.60;67.20;;;;;;4970231;28;20125;-79
2021/05/07 08:19:30;;;;;;;0.90;0.90;;;20.40;65.90;;;;;;4972394;28;20110;-79
2021/05/07 08:21:56;;;;;;;0.85;0.85;;;20.20;68.20;;;;;;4977396;28;20058;-78
2021/05/07 08:24:22;;;;;;;1.48;1.20;;;20.20;68.50;;;;;;4972039;28;20030;-79
2021/05/07 08:26:48;;;;;;;1.73;1.40;;;20.20;69.00;;;;;;4979485;28;20046;-78
2021/05/07 08:29:14;;;;;;;1.23;1.10;;;20.60;67.10;;;;;;4969010;28;20057;-80
2021/05/07 08:31:40;;;;;;;2.05;0.80;;;20.90;66.90;;;;;;4970568;28;20031;-79
2021/05/07 08:34:06;;;;;;;1.10;1.00;;;20.70;63.30;;;;;;4973540;28;20035;-79
2021/05/07 08:36:32;;;;;;;1.13;0.80;;;20.60;65.70;;;;;;4972548;28;20027;-79
2021/05/07 08:38:58;;;;;;;1.20;0.73;;;20.30;65.80;;;;;;4971007;28;20683;-79
2021/05/07 08:41:23;;;;;;;1.52;0.60;;;20.10;62.20;;;;;;4977141;28;20019;-80
2021/05/07 08:43:52;;;;;;;2.42;1.00;;;20.50;63.30;;;;;;4969980;28;20072;-80
2021/05/07 08:46:18;;;;;;;1.15;0.70;;;20.30;64.50;;;;;;4985182;28;20029;-79
2021/05/07 08:48:44;;;;;;;1.02;0.93;;;20.40;66.70;;;;;;4975117;28;20072;-79
2021/05/07 08:51:10;;;;;;;5.40;1.15;;;20.20;64.10;;;;;;4973663;28;20034;-78
2021/05/07 08:53:36;;;;;;;1.92;1.02;;;20.00;64.10;;;;;;4974168;28;20041;-78
2021/05/07 08:56:08;;;;;;;1.02;1.00;;;20.10;62.70;;;;;;4972641;28;20023;-77
2021/05/07 08:58:34;;;;;;;1.43;0.90;;;20.50;62.10;;;;;;4961376;28;20030;-78
2021/05/07 09:01:00;;;;;;;1.52;0.80;;;20.60;62.80;;;;;;4958792;28;20034;-78
2021/05/07 09:03:26;;;;;;;1.23;1.10;;;20.50;60.30;;;;;;4959016;28;20096;-79
2021/05/07 09:05:52;;;;;;;1.75;1.10;;;20.90;63.80;;;;;;4970092;28;20610;-78
2021/05/07 09:08:17;;;;;;;1.40;1.30;;;21.20;63.30;;;;;;4969777;28;20047;-78
2021/05/07 09:10:46;;;;;;;1.38;1.20;;;21.40;58.50;;;;;;4971268;28;20148;-74
2021/05/07 09:13:20;;;;;;;1.60;1.10;;;21.50;61.90;;;;;;4968813;28;20031;-78
2021/05/07 09:15:52;;;;;;;1.35;0.90;;;21.20;60.70;;;;;;4969791;28;20066;-78
2021/05/07 09:18:18;;;;;;;2.22;1.25;;;21.70;60.90;;;;;;4952568;28;20027;-78
2021/05/07 09:20:54;;;;;;;1.60;1.05;;;22.60;60.30;;;;;;4969982;28;20038;-78
2021/05/07 09:23:19;;;;;;;1.65;1.45;;;22.60;55.80;;;;;;4973992;28;20018;-79
2021/05/07 09:25:51;;;;;;;1.40;1.30;;;23.10;57.30;;;;;;4970710;28;20043;-78
2021/05/07 09:28:17;;;;;;;1.92;1.23;;;22.90;54.20;;;;;;4977675;28;20026;-79
2021/05/07 09:30:45;;;;;;;1.60;1.50;;;22.80;58.40;;;;;;4953418;28;20426;-75
2021/05/07 09:33:12;;;;;;;2.15;1.52;;;23.60;53.50;;;;;;4970898;28;20027;-79
2021/05/07 09:35:39;;;;;;;1.35;1.13;;;24.60;52.70;;;;;;4975068;28;20023;-79
2021/05/07 09:38:16;;;;;;;1.50;1.40;;;25.60;49.50;;;;;;4973702;28;20023;-78
2021/05/07 09:40:43;;;;;;;1.48;1.33;;;25.00;48.00;;;;;;4970796;28;20027;-79
2021/05/07 09:43:12;;;;;;;1.48;1.38;;;24.70;49.60;;;;;;4968247;28;20085;-78
2021/05/07 09:45:40;;;;;;;1.63;1.52;;;24.80;49.60;;;;;;4979224;28;20054;-79
2021/05/07 09:48:19;;;;;;;2.95;1.45;;;24.70;53.70;;;;;;4959306;28;20397;-79
2021/05/07 09:50:46;;;;;;;1.50;1.00;;;24.60;52.40;;;;;;4953862;28;20382;-79
2021/05/07 09:53:13;;;;;;;1.00;0.95;;;23.80;54.50;;;;;;4971301;28;20034;-79
2021/05/07 09:55:40;;;;;;;3.85;1.00;;;21.90;56.30;;;;;;4969204;28;20035;-78
2021/05/07 09:58:06;;;;;;;1.27;1.17;;;20.40;58.50;;;;;;4970628;28;20058;-79
2021/05/07 10:00:32;;;;;;;1.75;1.45;;;20.00;66.00;;;;;;4970109;28;20557;-79
2021/05/07 10:02:58;;;;;;;2.03;0.90;;;21.70;61.10;;;;;;4945292;28;20061;-78
2021/05/07 10:05:24;;;;;;;1.15;0.77;;;21.20;55.40;;;;;;4975437;28;20086;-79
2021/05/07 10:07:50;;;;;;;1.60;1.20;;;19.90;58.00;;;;;;4975161;28;20035;-78
2021/05/07 10:10:16;;;;;;;1.48;1.38;;;20.70;58.20;;;;;;4974845;28;20125;-78
2021/05/07 10:12:45;;;;;;;2.83;1.08;;;20.70;55.70;;;;;;4973538;28;20066;-79
2021/05/07 10:15:11;;;;;;;1.65;1.30;;;21.40;54.90;;;;;;4972019;28;20058;-79
2021/05/07 10:17:51;;;;;;;6.15;1.55;;;22.40;53.50;;;;;;4969865;28;20403;-78
2021/05/07 10:20:24;;;;;;;2.95;1.00;;;21.40;53.90;;;;;;4974602;28;20035;-78
2021/05/07 10:22:49;;;;;;;1.20;1.10;;;19.60;57.30;;;;;;4973409;28;20033;-78
2021/05/07 10:25:19;;;;;;;1.92;1.10;;;19.70;60.00;;;;;;4982287;28;20042;-79
2021/05/07 10:27:51;;;;;;;1.05;0.85;;;20.00;62.60;;;;;;4971663;28;20041;-79
2021/05/07 10:30:28;;;;;;;1.00;1.00;;;19.80;60.50;;;;;;4974489;28;20027;-78
2021/05/07 10:33:01;;;;;;;1.80;1.30;;;20.40;57.50;;;;;;4971593;28;20062;-79
2021/05/07 10:35:32;;;;;;;1.20;1.10;;;20.90;59.70;;;;;;4973770;28;20109;-78
2021/05/07 10:38:10;;;;;;;1.55;1.30;;;20.60;57.40;;;;;;4974272;28;20023;-79
2021/05/07 10:40:36;;;;;;;1.67;1.30;;;22.00;55.70;;;;;;4972938;28;20038;-79
2021/05/07 10:43:03;;;;;;;1.35;1.23;;;23.40;57.00;;;;;;4970849;28;20545;-78
2021/05/07 10:45:43;;;;;;;2.05;1.23;;;23.50;53.10;;;;;;4973415;28;20034;-78
2021/05/07 10:48:27;;;;;;;1.83;1.48;;;23.50;51.00;;;;;;4976806;28;20497;-78
2021/05/07 10:50:57;;;;;;;2.17;1.30;;;22.50;52.20;;;;;;4973586;28;20038;-77
2021/05/07 10:53:43;;;;;;;2.35;1.65;;;22.10;57.90;;;;;;4972535;28;20406;-78
2021/05/07 10:56:19;;;;;;;1.88;1.15;;;23.10;51.60;;;;;;4977196;28;20038;-79
2021/05/07 10:58:46;;;;;;;2.65;1.48;;;24.10;53.00;;;;;;4972312;28;20027;-79
2021/05/07 11:01:20;;;;;;;1.33;1.25;;;23.60;48.00;;;;;;4973818;28;20501;-78
2021/05/07 11:03:57;;;;;;;4.63;1.17;;;23.10;50.00;;;;;;4971366;28;20398;-78
2021/05/07 11:06:59;;;;;;;1.50;1.40;;;22.70;51.80;;;;;;4944433;28;20129;-79
2021/05/07 11:09:27;;;;;;;2.10;1.40;;;23.70;49.30;;;;;;4952375;28;20039;-78
2021/05/07 11:11:54;;;;;;;1.67;1.58;;;24.00;47.90;;;;;;4971993;28;20114;-78
2021/05/07 11:14:23;;;;;;;1.90;1.65;;;23.00;49.30;;;;;;4972382;28;20895;-78
2021/05/07 11:16:50;;;;;;;5.97;1.60;;;22.50;50.30;;;;;;4956209;28;20057;-78
2021/05/07 11:19:33;;;;;;;3.55;1.60;;;22.20;51.50;;;;;;4972426;28;20030;-78
2021/05/07 11:22:03;;;;;;;3.55;1.80;;;21.40;54.40;;;;;;4955878;28;20153;-79
2021/05/07 11:24:31;;;;;;;1.98;1.63;;;21.20;53.50;;;;;;4973187;28;20495;-77
2021/05/07 11:26:58;;;;;;;2.20;1.60;;;20.20;58.20;;;;;;4971688;28;20105;-79
2021/05/07 11:29:28;;;;;;;1.92;1.25;;;20.80;56.70;;;;;;4974397;28;20034;-79
2021/05/07 11:31:53;;;;;;;1.42;1.20;;;20.40;55.90;;;;;;4971948;28;20041;-79
2021/05/07 11:34:26;;;;;;;2.35;1.25;;;20.30;56.60;;;;;;4970027;28;20026;-78
2021/05/07 11:36:58;;;;;;;;;;;20.20;55.90;;;;;;4964946;28;20050;-78
2021/05/07 11:39:24;;;;;;;1.52;1.13;;;20.10;57.00;;;;;;4950592;28;19905;-78
2021/05/07 11:41:50;;;;;;;1.77;0.98;;;19.80;58.00;;;;;;4971954;28;20023;-78
2021/05/07 11:44:15;;;;;;;2.05;1.02;;;19.30;58.90;;;;;;4967802;28;20066;-77
2021/05/07 11:46:41;;;;;;;1.73;1.23;;;18.70;62.10;;;;;;4972226;28;20023;-77
2021/05/07 11:49:07;;;;;;;1.27;1.00;;;18.50;62.50;;;;;;4972035;28;20039;-79
2021/05/07 11:51:34;;;;;;;2.10;0.93;;;18.80;63.80;;;;;;4972393;28;20026;-78
2021/05/07 11:54:00;;;;;;;3.35;1.00;;;19.00;61.00;;;;;;4972430;28;20035;-78
2021/05/07 11:56:26;;;;;;;1.25;1.00;;;18.90;61.50;;;;;;4972839;28;20089;-74
2021/05/07 11:58:53;;;;;;;2.45;0.70;;;18.70;61.80;;;;;;4971757;28;20402;-78
2021/05/07 12:01:25;;;;;;;2.00;0.73;;;18.50;62.40;;;;;;4968639;28;20438;-79
2021/05/07 12:03:54;;;;;;;0.85;0.60;;;18.60;63.20;;;;;;4970351;28;20054;-78
2021/05/07 12:06:28;;;;;;;1.10;0.70;;;18.70;62.20;;;;;;4972918;28;20081;-78
2021/05/07 12:08:55;;;;;;;0.82;0.60;;;19.40;61.00;;;;;;4971470;28;20027;-78
2021/05/07 12:11:21;;;;;;;1.85;0.50;;;19.90;59.40;;;;;;4953912;28;20494;-78
2021/05/07 12:13:47;;;;;;;6.07;0.80;;;20.70;58.10;;;;;;4971152;28;20088;-79
2021/05/07 12:16:14;;;;;;;0.88;0.50;;;20.00;58.80;;;;;;4971297;28;20050;-78
2021/05/07 12:18:51;;;;;;;1.15;0.50;;;20.50;57.30;;;;;;4971537;28;20042;-78
2021/05/07 12:21:16;;;;;;;0.93;0.70;;;20.30;58.10;;;;;;4970457;28;20500;-78
2021/05/07 12:23:50;;;;;;;1.42;0.47;;;20.10;59.20;;;;;;4954742;28;20031;-79
2021/05/07 12:26:18;;;;;;;3.53;0.55;;;19.80;59.80;;;;;;4971200;28;20034;-78
2021/05/07 12:29:00;;;;;;;1.95;0.60;;;19.70;61.00;;;;;;4972100;28;20106;-78
2021/05/07 12:31:31;;;;;;;4.95;0.80;;;19.90;60.50;;;;;;4967263;28;20395;-78
2021/05/07 12:33:57;;;;;;;2.33;0.85;;;19.30;64.40;;;;;;4969929;28;20065;-74
2021/05/07 12:36:24;;;;;;;0.50;0.50;;;18.60;66.90;;;;;;4972282;28;20054;-78
2021/05/07 12:38:50;;;;;;;1.17;0.65;;;18.20;68.10;;;;;;4970941;28;20027;-77
2021/05/07 12:41:20;;;;;;;5.38;0.60;;;18.10;70.00;;;;;;4970790;28;20025;-78
2021/05/07 12:43:50;;;;;;;1.85;0.85;;;18.00;69.10;;;;;;4969433;28;20031;-78
2021/05/07 12:46:19;;;;;;;4.50;0.80;;;17.90;69.00;;;;;;4971964;28;20022;-78
2021/05/07 12:48:49;;;;;;;2.00;0.60;;;17.90;69.50;;;;;;4970068;28;20039;-79
2021/05/07 12:51:16;;;;;;;0.50;0.50;;;18.20;70.70;;;;;;4970945;28;20146;-78
2021/05/07 12:53:42;;;;;;;1.08;0.93;;;18.50;72.10;;;;;;4972142;28;20109;-78